Accueil
METAR-TAF:

METAR-TAF

Aéroports :

Diest, Belgique

Base aérienne de Schaffen

latitude: 51-00N, longitude: 005-04E, altitude: 30 m

Observation

Le bulletin a été fait il y a 21 minutes, à 06:09 UTC
Vent 2 kt de direction variable
Température 13°C
Humidité 88%
Pression 1013 hPa
Visibilité: 7000 m

METAR: EBDT 220609Z AUTO VRB02KT 7000 NCD 13/11 Q1013 WHT

Heure: 08:30 (06:30 UTC)

Prévision

Le bulletin a été fait il y a 14 heures et 49 minutes, à 15:41 UTC
Prévision valable du 20 à 19 UTC au 21 à 07 UTC
Vent 7 kt de nord/nord-ouest
Visibilité 10 km ou plus
Quelques nuages à une hauteur de 3500 ft
Evoluant progressivement
du 20 à 20 UTC au 20 à 22 UTC
Visibilité: 3000 m
brume
Evoluant progressivement
du 21 à 01 UTC au 21 à 03 UTC
Visibilité: 0800 m
Nuages fragmentés à une hauteur de 100 ft
brouillard

TAF: EBDT 201541Z 2019/2107 34007KT 9999 FEW035 BECMG 2020/2022 3000 BR BECMG 2101/2103 0800 FG BKN001

Observations et prévisions météorologiques de plus de 4000 aéroports (messages METAR et TAF).

Les stations disponibles sont représentées par des disques jaunes et rouges sur la carte.

Passer la souris dessus pour voir le nom de la station.

Cliquer dessus pour voir les observations et prévisions météorologiques.

Pour changer de carte: cliquez sur les boutons verts avec une croix noire pour zoomer, sur le bouton vert avec un tiret pour effectuer un zoom arrière, ou sur les flèches vertes pour les cartes adjacentes.


METAR-TAF: